createdAt,value
2022-12-11T00:00:49.183Z,16.77
2022-12-11T00:02:50.744Z,19.70
2022-12-11T00:04:52.213Z,19.88
2022-12-11T00:06:53.789Z,18.92
2022-12-11T00:08:55.787Z,18.52
2022-12-11T00:10:57.241Z,21.67
2022-12-11T00:12:58.760Z,21.17
2022-12-11T00:15:00.196Z,19.40
2022-12-11T00:17:01.695Z,23.38
2022-12-11T00:19:03.315Z,20.25
2022-12-11T00:21:06.895Z,20.42
2022-12-11T00:23:08.366Z,19.52
2022-12-11T00:25:10.334Z,18.73
2022-12-11T00:27:11.996Z,20.10
2022-12-11T00:29:14.686Z,21.95
2022-12-11T00:31:18.150Z,20.30
2022-12-11T00:33:19.640Z,22.33
2022-12-11T00:35:21.134Z,20.35
2022-12-11T00:37:22.632Z,18.13
2022-12-11T00:39:24.119Z,20.23
2022-12-11T00:41:25.586Z,18.33
2022-12-11T00:43:27.080Z,20.95
2022-12-11T00:45:28.611Z,20.30
2022-12-11T00:47:30.058Z,20.20
2022-12-11T00:49:31.598Z,21.27
2022-12-11T00:51:33.402Z,17.83
2022-12-11T00:53:34.952Z,19.38
2022-12-11T00:55:37.826Z,18.58
2022-12-11T00:57:39.395Z,19.10
2022-12-11T00:59:40.879Z,20.05
2022-12-11T01:01:42.552Z,19.73
2022-12-11T01:03:44.835Z,17.77
2022-12-11T01:05:54.199Z,23.50
2022-12-11T01:07:55.723Z,19.33
2022-12-11T01:10:15.931Z,20.95
2022-12-11T01:12:17.460Z,20.75
2022-12-11T01:14:19.209Z,22.33
2022-12-11T01:16:20.776Z,21.02
2022-12-11T01:18:22.504Z,24.95
2022-12-11T01:20:26.200Z,20.45
2022-12-11T01:22:27.649Z,18.98
2022-12-11T01:24:29.101Z,19.88
2022-12-11T01:26:30.800Z,18.85
2022-12-11T01:28:32.274Z,21.33
2022-12-11T01:30:34.563Z,18.38
2022-12-11T01:32:36.815Z,18.70
2022-12-11T01:34:38.632Z,21.55
2022-12-11T01:36:40.084Z,21.55
2022-12-11T01:38:41.915Z,19.80
2022-12-11T01:40:51.219Z,19.42
2022-12-11T01:42:52.699Z,18.05
2022-12-11T01:45:15.766Z,19.52
2022-12-11T01:47:17.435Z,19.17
2022-12-11T01:49:21.887Z,20.60
2022-12-11T01:51:24.366Z,19.25
2022-12-11T01:53:31.183Z,21.27
2022-12-11T01:55:33.917Z,20.52
2022-12-11T01:57:39.781Z,19.55
2022-12-11T01:59:44.626Z,20.08
2022-12-11T02:01:46.019Z,20.40
2022-12-11T02:03:48.039Z,18.52
2022-12-11T02:05:49.947Z,18.13
2022-12-11T02:07:58.684Z,21.67
2022-12-11T02:12:10.786Z,19.00
2022-12-11T02:14:17.928Z,19.70
2022-12-11T02:16:35.852Z,22.65
2022-12-11T02:18:53.800Z,23.25
2022-12-11T02:21:18.851Z,19.40
2022-12-11T02:23:39.433Z,20.45
2022-12-11T02:26:04.014Z,21.55
2022-12-11T02:28:08.127Z,22.00
2022-12-11T02:30:13.858Z,20.85
2022-12-11T02:32:23.306Z,21.85
2022-12-11T02:34:30.648Z,21.00
2022-12-11T02:36:38.086Z,20.42
2022-12-11T02:38:43.010Z,19.80
2022-12-11T02:40:46.943Z,20.27
2022-12-11T02:42:49.849Z,20.55
2022-12-11T02:44:54.411Z,20.70
2022-12-11T02:46:58.382Z,17.55
2022-12-11T02:49:01.649Z,20.20
2022-12-11T02:51:06.833Z,18.45
2022-12-11T02:53:12.715Z,21.15
2022-12-11T02:55:16.370Z,20.15
2022-12-11T02:57:42.136Z,20.95
2022-12-11T02:59:45.396Z,21.23
2022-12-11T03:01:47.329Z,21.63
2022-12-11T03:03:49.184Z,21.90
2022-12-11T03:05:50.922Z,20.48
2022-12-11T03:07:52.508Z,22.05
2022-12-11T03:09:54.250Z,21.92
2022-12-11T03:11:55.809Z,18.52
2022-12-11T03:13:57.537Z,21.98
2022-12-11T03:16:21.824Z,23.55
2022-12-11T03:18:44.248Z,19.05
2022-12-11T03:20:52.003Z,21.13
2022-12-11T03:23:22.054Z,21.80
2022-12-11T03:25:31.217Z,19.88
2022-12-11T03:27:46.162Z,24.13
2022-12-11T03:29:57.196Z,19.42
2022-12-11T03:32:09.379Z,20.25
2022-12-11T03:34:18.069Z,22.65
2022-12-11T03:36:25.438Z,19.70
2022-12-11T03:38:53.215Z,20.38
2022-12-11T03:40:58.748Z,19.17
2022-12-11T03:43:00.673Z,21.85
2022-12-11T03:45:04.930Z,22.92
2022-12-11T03:47:08.438Z,19.88
2022-12-11T03:49:27.930Z,21.67
2022-12-11T03:51:32.526Z,23.80
2022-12-11T03:53:38.565Z,21.50
2022-12-11T03:55:41.542Z,19.85
2022-12-11T03:57:43.598Z,18.63
2022-12-11T03:59:45.325Z,19.60
2022-12-11T04:01:46.836Z,21.27
2022-12-11T04:03:48.341Z,20.83
2022-12-11T04:05:52.888Z,20.35
2022-12-11T04:07:54.361Z,19.40
2022-12-11T04:09:55.809Z,21.50
2022-12-11T04:11:57.257Z,22.17
2022-12-11T04:14:17.285Z,20.10
2022-12-11T04:16:18.763Z,22.73
2022-12-11T04:18:38.477Z,22.38
2022-12-11T04:20:58.173Z,19.38
2022-12-11T04:23:18.454Z,20.98
2022-12-11T04:25:19.903Z,22.00
2022-12-11T04:27:47.443Z,20.77
2022-12-11T04:29:48.868Z,20.65
2022-12-11T04:31:50.743Z,22.27
2022-12-11T04:33:52.268Z,19.58
2022-12-11T04:35:53.853Z,20.88
2022-12-11T04:37:55.331Z,22.90
2022-12-11T04:39:56.768Z,23.52
2022-12-11T04:41:58.214Z,23.02
2022-12-11T04:43:59.667Z,22.75
2022-12-11T04:46:14.877Z,22.38
2022-12-11T04:48:16.351Z,26.33
2022-12-11T04:50:17.983Z,22.38
2022-12-11T04:52:19.482Z,21.40
2022-12-11T04:54:20.916Z,21.45
2022-12-11T04:56:22.413Z,25.40
2022-12-11T04:58:25.182Z,22.08
2022-12-11T05:00:27.185Z,25.25
2022-12-11T05:02:28.682Z,25.60
2022-12-11T05:04:34.807Z,21.63
2022-12-11T05:06:36.309Z,24.67
2022-12-11T05:08:40.495Z,25.10
2022-12-11T05:10:47.097Z,23.30
2022-12-11T05:12:51.394Z,25.00
2022-12-11T05:14:53.601Z,24.42
2022-12-11T05:16:55.035Z,24.20
2022-12-11T05:18:56.475Z,24.00
2022-12-11T05:21:00.342Z,22.63
2022-12-11T05:23:02.028Z,24.27
2022-12-11T05:25:04.142Z,24.40
2022-12-11T05:27:05.586Z,22.77
2022-12-11T05:29:07.068Z,24.65
2022-12-11T05:31:13.492Z,23.92
2022-12-11T05:33:14.963Z,24.25
2022-12-11T05:35:16.461Z,20.50
2022-12-11T05:37:17.903Z,20.67
2022-12-11T05:39:19.756Z,25.40
2022-12-11T05:41:23.675Z,21.05
2022-12-11T05:43:25.403Z,22.77
2022-12-11T05:45:26.869Z,23.55
2022-12-11T05:47:28.311Z,20.73
2022-12-11T05:49:31.218Z,19.08
2022-12-11T05:51:34.358Z,23.23
2022-12-11T05:53:37.274Z,21.08
2022-12-11T05:55:38.751Z,22.55
2022-12-11T05:57:40.178Z,23.63
2022-12-11T05:59:41.673Z,21.65
2022-12-11T06:01:43.561Z,21.67
2022-12-11T06:03:45.632Z,25.00
2022-12-11T06:05:47.108Z,22.95
2022-12-11T06:07:48.568Z,23.88
2022-12-11T06:09:50.012Z,20.38
2022-12-11T06:11:51.495Z,19.48
2022-12-11T06:13:53.126Z,21.08
2022-12-11T06:15:54.814Z,20.38
2022-12-11T06:17:56.279Z,20.70
2022-12-11T06:19:57.713Z,21.15
2022-12-11T06:21:59.239Z,19.77
2022-12-11T06:24:03.177Z,21.95
2022-12-11T06:26:04.901Z,22.02
2022-12-11T06:28:06.462Z,21.95
2022-12-11T06:30:08.675Z,21.05
2022-12-11T06:32:10.406Z,21.13
2022-12-11T06:34:13.699Z,22.75
2022-12-11T06:36:21.474Z,21.83
2022-12-11T06:38:23.543Z,23.13
2022-12-11T06:40:25.059Z,20.98
2022-12-11T06:42:26.483Z,21.42
2022-12-11T06:44:28.145Z,22.98
2022-12-11T06:46:29.627Z,22.90
2022-12-11T06:48:31.345Z,22.67
2022-12-11T06:50:33.125Z,21.45
2022-12-11T06:52:34.680Z,19.75
2022-12-11T06:54:36.386Z,23.63
2022-12-11T06:56:37.835Z,20.05
2022-12-11T06:58:40.201Z,20.95
2022-12-11T07:00:41.767Z,25.73
2022-12-11T07:02:43.226Z,22.52
2022-12-11T07:04:44.746Z,21.42
2022-12-11T07:06:47.453Z,21.50
2022-12-11T07:08:49.165Z,23.67
2022-12-11T07:10:50.655Z,20.60
2022-12-11T07:12:55.047Z,21.02
2022-12-11T07:14:56.518Z,19.73
2022-12-11T07:16:58.194Z,20.00
2022-12-11T07:19:00.667Z,24.40
2022-12-11T07:21:02.233Z,21.25
2022-12-11T07:23:03.710Z,21.60
2022-12-11T07:25:05.553Z,21.33
2022-12-11T07:27:06.993Z,23.52
2022-12-11T07:29:08.506Z,22.80
2022-12-11T07:31:15.898Z,27.13
2022-12-11T07:33:17.414Z,22.35
2022-12-11T07:35:18.939Z,24.50
2022-12-11T07:37:20.379Z,22.58
2022-12-11T07:39:21.811Z,23.20
2022-12-11T07:41:23.465Z,22.00
2022-12-11T07:43:24.895Z,21.42
2022-12-11T07:45:26.588Z,22.25
2022-12-11T07:47:28.056Z,24.73
2022-12-11T07:49:29.587Z,22.65
2022-12-11T07:51:33.025Z,22.98
2022-12-11T07:53:34.476Z,24.08
2022-12-11T07:55:35.966Z,24.98
2022-12-11T07:57:37.431Z,20.42
2022-12-11T07:59:38.910Z,26.90
2022-12-11T08:01:40.887Z,24.48
2022-12-11T08:03:42.578Z,24.88
2022-12-11T08:05:49.981Z,22.73
2022-12-11T08:07:51.450Z,24.15
2022-12-11T08:09:52.945Z,22.00
2022-12-11T08:11:54.402Z,24.52
2022-12-11T08:13:56.366Z,21.05
2022-12-11T08:15:58.313Z,22.38
2022-12-11T08:17:59.960Z,22.30
2022-12-11T08:20:01.405Z,22.45
2022-12-11T08:22:03.628Z,21.70
2022-12-11T08:24:05.182Z,21.85
2022-12-11T08:26:10.198Z,22.92
2022-12-11T08:28:11.634Z,26.83
2022-12-11T08:30:13.467Z,23.25
2022-12-11T08:32:16.756Z,23.00
2022-12-11T08:34:18.305Z,22.10
2022-12-11T08:36:21.237Z,22.67
2022-12-11T08:38:25.549Z,22.83
2022-12-11T08:40:27.266Z,22.98
2022-12-11T08:42:28.699Z,25.35
2022-12-11T08:44:30.229Z,21.52
2022-12-11T08:46:32.676Z,25.73
2022-12-11T08:48:35.464Z,19.95
2022-12-11T08:50:37.265Z,23.95
2022-12-11T08:52:38.729Z,22.27
2022-12-11T08:54:40.355Z,26.60
2022-12-11T08:56:41.813Z,24.70
2022-12-11T08:58:44.668Z,29.25
2022-12-11T09:00:46.277Z,21.25
2022-12-11T09:02:48.354Z,22.63
2022-12-11T09:04:50.543Z,23.00
2022-12-11T09:06:51.999Z,21.90
2022-12-11T09:08:54.633Z,24.15
2022-12-11T09:10:56.074Z,20.63
2022-12-11T09:12:57.524Z,21.50
2022-12-11T09:14:58.970Z,25.02
2022-12-11T09:17:00.446Z,18.20
2022-12-11T09:19:01.883Z,21.40
2022-12-11T09:21:17.895Z,25.25
2022-12-11T09:23:19.331Z,31.38
2022-12-11T09:25:20.892Z,21.20
2022-12-11T09:27:22.369Z,22.83
2022-12-11T09:29:23.910Z,19.85
2022-12-11T09:31:28.260Z,23.67
2022-12-11T09:33:29.690Z,20.88
2022-12-11T09:35:31.134Z,21.42
2022-12-11T09:37:34.017Z,20.25
2022-12-11T09:39:35.496Z,19.60
2022-12-11T09:41:50.034Z,26.77
2022-12-11T09:44:18.370Z,22.85
2022-12-11T09:46:23.613Z,22.08
2022-12-11T09:48:26.594Z,22.60
2022-12-11T09:50:32.876Z,26.92
2022-12-11T09:53:02.530Z,28.25
2022-12-11T09:55:15.488Z,22.30
2022-12-11T09:57:28.997Z,25.80
2022-12-11T10:00:02.719Z,24.02
2022-12-11T10:02:22.525Z,27.38
2022-12-11T10:04:26.721Z,24.60
2022-12-11T10:06:32.541Z,30.60
2022-12-11T10:08:44.863Z,25.52
2022-12-11T10:11:30.589Z,27.58
2022-12-11T10:13:48.315Z,29.80
2022-12-11T10:16:19.101Z,29.63
2022-12-11T10:18:23.452Z,30.23
2022-12-11T10:20:31.739Z,28.20
2022-12-11T10:22:34.711Z,34.10
2022-12-11T10:25:11.568Z,33.45
2022-12-11T10:27:26.716Z,27.48
2022-12-11T10:29:28.397Z,32.65
2022-12-11T10:31:45.081Z,26.35
2022-12-11T10:34:15.232Z,32.50
2022-12-11T10:36:25.216Z,29.52
2022-12-11T10:38:32.319Z,31.73
2022-12-11T10:40:36.268Z,25.98
2022-12-11T10:42:41.273Z,30.70
2022-12-11T10:44:58.241Z,25.60
2022-12-11T10:47:04.601Z,30.15
2022-12-11T10:49:06.034Z,29.60
2022-12-11T10:51:07.956Z,29.50
2022-12-11T10:53:21.123Z,26.67
2022-12-11T10:55:27.378Z,26.40
2022-12-11T10:57:32.537Z,26.15
2022-12-11T10:59:43.939Z,24.35
2022-12-11T11:01:46.711Z,32.90
2022-12-11T11:04:06.933Z,28.52
2022-12-11T11:06:20.151Z,29.80
2022-12-11T11:08:25.283Z,26.60
2022-12-11T11:10:27.255Z,30.27
2022-12-11T11:12:28.817Z,33.92
2022-12-11T11:14:30.381Z,27.75
2022-12-11T11:16:34.935Z,31.95
2022-12-11T11:18:36.541Z,30.55
2022-12-11T11:20:46.483Z,27.83
2022-12-11T11:22:52.343Z,31.25
2022-12-11T11:24:59.047Z,31.40
2022-12-11T11:27:16.486Z,27.85
2022-12-11T11:29:37.759Z,29.98
2022-12-11T11:31:39.330Z,28.38
2022-12-11T11:33:56.016Z,30.80
2022-12-11T11:36:02.455Z,32.10
2022-12-11T11:38:09.636Z,30.73
2022-12-11T11:40:33.308Z,27.75
2022-12-11T11:42:45.595Z,32.42
2022-12-11T11:44:59.808Z,28.83
2022-12-11T11:47:09.046Z,30.90
2022-12-11T11:49:24.262Z,27.35
2022-12-11T11:51:41.683Z,31.05
2022-12-11T11:53:49.492Z,34.25
2022-12-11T11:56:03.223Z,27.33
2022-12-11T11:58:17.362Z,31.42
2022-12-11T12:00:21.362Z,38.83
2022-12-11T12:02:22.897Z,29.42
2022-12-11T12:04:28.478Z,26.88
2022-12-11T12:07:07.247Z,32.17
2022-12-11T12:09:09.194Z,29.45
2022-12-11T12:11:13.300Z,29.80
2022-12-11T12:13:48.541Z,33.42
2022-12-11T12:16:43.779Z,30.15
2022-12-11T12:18:57.972Z,31.60
2022-12-11T12:21:00.120Z,35.80
2022-12-11T12:23:20.078Z,30.40
2022-12-11T12:25:30.328Z,29.70
2022-12-11T12:27:57.839Z,28.13
2022-12-11T12:30:03.832Z,29.65
2022-12-11T12:32:16.237Z,28.35
2022-12-11T12:34:39.419Z,34.05
2022-12-11T12:36:50.067Z,28.85
2022-12-11T12:39:28.258Z,32.92
2022-12-11T12:42:08.328Z,30.35
2022-12-11T12:44:17.723Z,31.83
2022-12-11T12:46:37.426Z,27.50
2022-12-11T12:48:39.179Z,30.70
2022-12-11T12:50:45.059Z,32.00
2022-12-11T12:52:48.742Z,33.17
2022-12-11T12:55:12.967Z,33.47
2022-12-11T12:57:14.695Z,31.60
2022-12-11T12:59:24.793Z,33.60
2022-12-11T13:01:28.774Z,35.25
2022-12-11T13:03:35.543Z,33.90
2022-12-11T13:05:40.846Z,34.55
2022-12-11T13:07:54.206Z,29.33
2022-12-11T13:09:58.650Z,33.85
2022-12-11T13:12:00.165Z,32.83
2022-12-11T13:14:22.086Z,37.38
2022-12-11T13:16:26.559Z,29.25
2022-12-11T13:18:39.292Z,28.45
2022-12-11T13:20:51.086Z,34.63
2022-12-11T13:23:07.577Z,31.75
2022-12-11T13:25:25.954Z,35.65
2022-12-11T13:27:40.755Z,32.33
2022-12-11T13:29:42.775Z,36.53
2022-12-11T13:31:45.544Z,33.60
2022-12-11T13:33:53.382Z,32.03
2022-12-11T13:36:22.916Z,33.97
2022-12-11T13:38:26.182Z,34.28
2022-12-11T13:40:33.312Z,37.50
2022-12-11T13:42:44.164Z,37.22
2022-12-11T13:44:48.459Z,31.00
2022-12-11T13:46:52.271Z,43.75
2022-12-11T13:49:00.776Z,35.42
2022-12-11T13:51:03.705Z,37.00
2022-12-11T13:53:05.450Z,37.15
2022-12-11T13:55:21.720Z,36.78
2022-12-11T13:57:25.886Z,34.80
2022-12-11T13:59:40.973Z,34.42
2022-12-11T14:01:42.538Z,45.17
2022-12-11T14:03:54.602Z,41.13
2022-12-11T14:05:56.276Z,33.63
2022-12-11T14:08:02.832Z,44.50
2022-12-11T14:10:29.925Z,35.38
2022-12-11T14:12:32.767Z,36.10
2022-12-11T14:14:42.699Z,38.53
2022-12-11T14:16:48.186Z,33.97
2022-12-11T14:18:51.989Z,37.88
2022-12-11T14:20:55.909Z,36.28
2022-12-11T14:23:24.075Z,38.15
2022-12-11T14:25:27.503Z,41.35
2022-12-11T14:27:29.680Z,44.80
2022-12-11T14:29:33.217Z,41.67
2022-12-11T14:31:39.967Z,40.70
2022-12-11T14:33:47.522Z,42.45
2022-12-11T14:35:50.507Z,43.58
2022-12-11T14:37:53.054Z,41.17
2022-12-11T14:40:24.147Z,42.30
2022-12-11T14:42:32.462Z,41.38
2022-12-11T14:44:49.103Z,45.08
2022-12-11T14:46:55.422Z,40.05
2022-12-11T14:49:01.817Z,45.75
2022-12-11T14:51:07.562Z,40.35
2022-12-11T14:53:15.479Z,43.88
2022-12-11T14:55:24.326Z,48.92
2022-12-11T14:57:30.606Z,44.00
2022-12-11T14:59:41.272Z,39.10
2022-12-11T15:01:42.851Z,41.78
2022-12-11T15:03:44.618Z,41.05
2022-12-11T15:05:56.735Z,42.78
2022-12-11T15:08:24.410Z,40.63
2022-12-11T15:10:36.904Z,33.00
2022-12-11T15:12:45.353Z,27.55
2022-12-11T15:14:51.484Z,29.80
2022-12-11T15:16:56.278Z,29.08
2022-12-11T15:19:01.543Z,28.48
2022-12-11T15:21:09.989Z,24.35
2022-12-11T15:23:18.680Z,31.08
2022-12-11T15:25:22.901Z,22.77
2022-12-11T15:27:30.801Z,27.30
2022-12-11T15:29:38.361Z,27.73
2022-12-11T15:31:39.933Z,23.20
2022-12-11T15:33:48.010Z,25.85
2022-12-11T15:35:53.705Z,23.95
2022-12-11T15:37:57.513Z,24.25
2022-12-11T15:40:01.501Z,22.02
2022-12-11T15:42:03.063Z,24.25
2022-12-11T15:44:04.984Z,28.38
2022-12-11T15:46:07.271Z,21.95
2022-12-11T15:48:11.328Z,24.75
2022-12-11T15:50:27.154Z,21.25
2022-12-11T15:52:28.825Z,21.15
2022-12-11T15:54:30.298Z,24.70
2022-12-11T15:56:31.944Z,24.67
2022-12-11T15:58:33.429Z,23.05
2022-12-11T16:00:35.183Z,24.60
2022-12-11T16:02:36.643Z,23.80
2022-12-11T16:04:38.315Z,30.52
2022-12-11T16:06:45.207Z,29.70
2022-12-11T16:08:46.839Z,33.92
2022-12-11T16:10:48.762Z,36.53
2022-12-11T16:12:50.348Z,34.72
2022-12-11T16:14:51.943Z,32.75
2022-12-11T16:16:53.441Z,36.88
2022-12-11T16:18:54.898Z,35.22
2022-12-11T16:20:56.361Z,30.48
2022-12-11T16:22:59.232Z,34.70
2022-12-11T16:25:00.763Z,36.70
2022-12-11T16:27:03.190Z,29.67
2022-12-11T16:29:04.648Z,30.08
2022-12-11T16:31:14.349Z,36.35
2022-12-11T16:33:16.370Z,37.03
2022-12-11T16:35:18.743Z,38.42
2022-12-11T16:37:20.406Z,29.90
2022-12-11T16:39:21.825Z,28.00
2022-12-11T16:41:23.983Z,38.05
2022-12-11T16:43:25.519Z,30.92
2022-12-11T16:45:27.341Z,35.50
2022-12-11T16:47:30.337Z,30.55
2022-12-11T16:49:32.234Z,34.03
2022-12-11T16:51:33.882Z,37.90
2022-12-11T16:53:35.403Z,29.63
2022-12-11T16:55:39.547Z,34.00
2022-12-11T16:57:41.516Z,33.10
2022-12-11T16:59:43.465Z,29.45
2022-12-11T17:01:45.836Z,34.67
2022-12-11T17:03:47.451Z,32.78
2022-12-11T17:05:48.879Z,35.45
2022-12-11T17:07:50.562Z,36.53
2022-12-11T17:09:52.031Z,38.45
2022-12-11T17:11:53.777Z,43.22
2022-12-11T17:13:56.757Z,33.88
2022-12-11T17:15:58.326Z,36.08
2022-12-11T17:17:59.818Z,34.83
2022-12-11T17:20:01.338Z,38.88
2022-12-11T17:22:03.489Z,35.88
2022-12-11T17:24:05.266Z,35.97
2022-12-11T17:26:08.775Z,35.10
2022-12-11T17:28:11.399Z,42.38
2022-12-11T17:30:14.177Z,38.25
2022-12-11T17:32:16.749Z,35.65
2022-12-11T17:34:18.234Z,39.90
2022-12-11T17:36:21.787Z,45.63
2022-12-11T17:38:23.238Z,40.00
2022-12-11T17:40:24.877Z,38.10
2022-12-11T17:42:26.541Z,41.85
2022-12-11T17:44:30.678Z,37.50
2022-12-11T17:46:32.300Z,35.80
2022-12-11T17:48:34.111Z,38.30
2022-12-11T17:50:43.768Z,37.00
2022-12-11T17:52:45.222Z,41.92
2022-12-11T17:54:46.694Z,41.63
2022-12-11T17:56:48.295Z,40.60
2022-12-11T17:58:49.990Z,38.05
2022-12-11T18:00:54.442Z,37.25
2022-12-11T18:02:55.891Z,38.90
2022-12-11T18:04:57.313Z,45.45
2022-12-11T18:06:58.785Z,42.45
2022-12-11T18:09:00.227Z,44.20
2022-12-11T18:11:07.446Z,38.40
2022-12-11T18:13:09.713Z,39.38
2022-12-11T18:15:11.745Z,39.92
2022-12-11T18:17:13.411Z,40.35
2022-12-11T18:19:15.761Z,41.28
2022-12-11T18:21:21.596Z,39.80
2022-12-11T18:23:23.445Z,43.65
2022-12-11T18:25:24.941Z,41.45
2022-12-11T18:27:26.601Z,43.28
2022-12-11T18:29:28.687Z,46.72
2022-12-11T18:31:30.338Z,36.00
2022-12-11T18:33:32.229Z,37.17
2022-12-11T18:35:33.747Z,43.55
2022-12-11T18:37:35.961Z,53.83
2022-12-11T18:39:37.416Z,47.95
2022-12-11T18:41:39.070Z,43.88
2022-12-11T18:43:41.484Z,47.08
2022-12-11T18:45:45.120Z,42.88
2022-12-11T18:47:47.257Z,41.05
2022-12-11T18:49:48.777Z,47.45
2022-12-11T18:51:50.319Z,44.08
2022-12-11T18:53:52.505Z,50.88
2022-12-11T18:56:00.025Z,43.58
2022-12-11T18:58:01.834Z,43.93
2022-12-11T19:00:07.465Z,42.22
2022-12-11T19:02:10.971Z,43.78
2022-12-11T19:04:13.442Z,40.65
2022-12-11T19:06:18.623Z,39.00
2022-12-11T19:08:21.121Z,41.92
2022-12-11T19:10:22.767Z,41.53
2022-12-11T19:12:24.339Z,42.20
2022-12-11T19:14:25.869Z,41.30
2022-12-11T19:16:30.244Z,42.75
2022-12-11T19:18:31.930Z,45.17
2022-12-11T19:21:00.461Z,44.67
2022-12-11T19:22:58.415Z,43.00
2022-12-11T19:25:00.486Z,46.50
2022-12-11T19:27:02.064Z,45.53
2022-12-11T19:29:03.840Z,43.25
2022-12-11T19:31:12.161Z,41.90
2022-12-11T19:33:13.879Z,52.22
2022-12-11T19:35:16.719Z,47.55
2022-12-11T19:37:18.671Z,51.15
2022-12-11T19:39:20.636Z,50.70
2022-12-11T19:41:27.131Z,51.55
2022-12-11T19:43:28.596Z,52.05
2022-12-11T19:45:30.081Z,49.90
2022-12-11T19:47:32.172Z,50.85
2022-12-11T19:49:33.817Z,51.65
2022-12-11T19:51:41.010Z,58.28
2022-12-11T19:53:43.504Z,57.35
2022-12-11T19:55:52.943Z,50.15
2022-12-11T19:57:55.665Z,50.92
2022-12-11T19:59:57.564Z,54.10
2022-12-11T20:01:59.186Z,43.20
2022-12-11T20:04:04.099Z,47.40
2022-12-11T20:06:07.995Z,45.30
2022-12-11T20:08:42.519Z,42.63
2022-12-11T20:10:31.009Z,51.45
2022-12-11T20:12:32.672Z,47.50
2022-12-11T20:14:34.124Z,46.10
2022-12-11T20:17:09.276Z,43.78
2022-12-11T20:18:58.507Z,50.08
2022-12-11T20:21:01.145Z,39.42
2022-12-11T20:23:02.711Z,43.95
2022-12-11T20:25:04.653Z,48.72
2022-12-11T20:27:06.231Z,43.92
2022-12-11T20:29:08.406Z,47.05
2022-12-11T20:31:19.727Z,48.83
2022-12-11T20:33:22.435Z,45.95
2022-12-11T20:35:26.312Z,44.58
2022-12-11T20:37:29.069Z,50.83
2022-12-11T20:39:31.960Z,48.30
2022-12-11T20:41:33.613Z,40.67
2022-12-11T20:43:35.347Z,45.15
2022-12-11T20:45:36.904Z,49.08
2022-12-11T20:47:38.370Z,49.30
2022-12-11T20:49:40.428Z,44.50
2022-12-11T20:51:42.093Z,48.45
2022-12-11T20:53:43.672Z,51.80
2022-12-11T20:55:45.124Z,54.90
2022-12-11T20:57:46.591Z,51.47
2022-12-11T20:59:49.461Z,49.80
2022-12-11T21:01:51.046Z,51.28
2022-12-11T21:03:53.534Z,49.95
2022-12-11T21:05:55.088Z,56.17
2022-12-11T21:07:56.935Z,58.95
2022-12-11T21:09:58.461Z,49.08
2022-12-11T21:12:01.547Z,52.58
2022-12-11T21:14:03.852Z,53.72
2022-12-11T21:16:07.203Z,54.80
2022-12-11T21:18:08.903Z,45.20
2022-12-11T21:20:10.855Z,47.45
2022-12-11T21:22:12.534Z,52.58
2022-12-11T21:24:21.064Z,48.00
2022-12-11T21:26:22.714Z,52.70
2022-12-11T21:28:24.261Z,50.42
2022-12-11T21:30:25.708Z,55.35
2022-12-11T21:32:29.881Z,48.28
2022-12-11T21:34:31.389Z,47.42
2022-12-11T21:36:33.473Z,52.78
2022-12-11T21:38:35.048Z,49.65
2022-12-11T21:40:36.542Z,48.47
2022-12-11T21:42:37.986Z,46.92
2022-12-11T21:47:00.917Z,43.88
2022-12-11T21:49:02.438Z,47.22
2022-12-11T21:51:08.508Z,49.35
2022-12-11T21:53:10.025Z,49.95
2022-12-11T21:55:12.619Z,52.65
2022-12-11T21:57:14.413Z,55.50
2022-12-11T21:59:15.955Z,60.17
2022-12-11T22:01:21.546Z,58.88
2022-12-11T22:03:23.135Z,51.72
2022-12-11T22:05:24.699Z,52.40
2022-12-11T22:07:26.570Z,52.25
2022-12-11T22:09:28.006Z,51.92
2022-12-11T22:11:32.823Z,49.85
2022-12-11T22:13:34.314Z,55.90
2022-12-11T22:15:35.795Z,50.10
2022-12-11T22:17:37.304Z,57.00
2022-12-11T22:19:38.744Z,53.78
2022-12-11T22:21:40.372Z,48.42
2022-12-11T22:23:42.769Z,53.10
2022-12-11T22:25:44.202Z,47.60
2022-12-11T22:27:45.639Z,51.40
2022-12-11T22:29:47.132Z,50.05
2022-12-11T22:31:48.685Z,56.90
2022-12-11T22:33:53.730Z,53.78
2022-12-11T22:35:59.722Z,57.78
2022-12-11T22:38:01.556Z,49.22
2022-12-11T22:40:04.244Z,49.22
2022-12-11T22:42:05.693Z,49.67
2022-12-11T22:44:07.845Z,48.97
2022-12-11T22:46:15.823Z,57.97
2022-12-11T22:48:17.362Z,49.30
2022-12-11T22:50:18.957Z,50.10
2022-12-11T22:52:20.417Z,49.40
2022-12-11T22:54:21.861Z,52.35
2022-12-11T22:56:23.363Z,48.42
2022-12-11T22:58:24.801Z,49.03
2022-12-11T23:00:26.330Z,45.30
2022-12-11T23:02:27.843Z,51.75
2022-12-11T23:04:29.301Z,52.20
2022-12-11T23:06:30.941Z,49.42
2022-12-11T23:08:33.135Z,55.22
2022-12-11T23:10:35.058Z,49.78
2022-12-11T23:12:37.041Z,52.08
2022-12-11T23:14:38.514Z,47.95
2022-12-11T23:16:40.054Z,50.95
2022-12-11T23:18:41.658Z,48.95
2022-12-11T23:20:43.166Z,54.13
2022-12-11T23:22:44.622Z,55.15
2022-12-11T23:24:46.124Z,52.75
2022-12-11T23:26:48.116Z,52.65
2022-12-11T23:28:50.096Z,54.28
2022-12-11T23:30:51.681Z,58.45
2022-12-11T23:32:53.155Z,58.58
2022-12-11T23:34:54.659Z,58.20
2022-12-11T23:36:56.119Z,59.25
2022-12-11T23:38:57.632Z,53.90
2022-12-11T23:41:00.624Z,55.65
2022-12-11T23:43:02.108Z,50.90
2022-12-11T23:45:03.872Z,49.55
2022-12-11T23:47:05.677Z,53.45
2022-12-11T23:49:07.114Z,53.17
2022-12-11T23:51:13.101Z,51.10
2022-12-11T23:53:15.209Z,56.03
2022-12-11T23:55:16.705Z,46.30
2022-12-11T23:57:18.245Z,46.25
2022-12-11T23:59:19.725Z,48.38
